Time;durP1;ratioP1;P1;durP2;ratioP2;P2;SDS_P1;SDS_P2;PMS_P1;PMS_P2;Temp;Humidity;BMP_temperature;BMP_pressure;BME280_temperature;BME280_humidity;BME280_pressure;Samples;Min_cycle;Max_cycle;Signal;HPM_P1;HPM_P2
2021/12/24 00:00:46;;;;;;;7.53;2.67;;;11.10;77.10;;;;;;5098592;28;19926;-53
2021/12/24 00:03:13;;;;;;;6.38;2.28;;;11.10;77.00;;;;;;5098869;28;20481;-53
2021/12/24 00:05:39;;;;;;;9.75;2.85;;;11.20;77.00;;;;;;5098733;28;20028;-55
2021/12/24 00:08:06;;;;;;;6.30;2.30;;;11.10;76.90;;;;;;5097271;28;20032;-54
2021/12/24 00:10:33;;;;;;;6.45;2.55;;;11.10;77.00;;;;;;5096328;28;20027;-55
2021/12/24 00:13:05;;;;;;;6.18;2.55;;;11.10;77.10;;;;;;5099059;28;20039;-53
2021/12/24 00:15:55;;;;;;;6.03;2.58;;;11.10;77.00;;;;;;5077895;28;20029;-48
2021/12/24 00:37:27;;;;;;;15.07;2.97;;;11.20;77.40;;;;;;5098653;28;20145;-45
2021/12/24 00:42:28;;;;;;;19.90;3.03;;;11.30;77.20;;;;;;5089021;28;20024;-46
2021/12/24 00:44:53;;;;;;;19.20;2.95;;;11.30;77.30;;;;;;5098764;28;20054;-45
2021/12/24 00:47:19;;;;;;;56.13;5.13;;;11.30;77.90;;;;;;5099050;28;20020;-45
2021/12/24 00:49:45;;;;;;;25.55;3.92;;;11.30;79.10;;;;;;5098737;28;20065;-45
2021/12/24 00:55:03;;;;;;;18.70;3.90;;;11.30;78.10;;;;;;5098988;28;20058;-48
2021/12/24 00:57:30;;;;;;;14.48;3.35;;;11.40;78.00;;;;;;5097557;28;20044;-46
2021/12/24 00:59:56;;;;;;;28.63;4.40;;;11.40;77.80;;;;;;5098612;28;20024;-47
2021/12/24 01:02:22;;;;;;;20.52;4.28;;;11.40;78.20;;;;;;5099069;28;20020;-46
2021/12/24 01:04:48;;;;;;;7.75;3.13;;;11.40;77.90;;;;;;5098861;28;20475;-46
2021/12/24 01:07:14;;;;;;;7.88;2.50;;;11.40;77.60;;;;;;5098478;28;20024;-47
2021/12/24 01:09:40;;;;;;;8.57;2.78;;;11.30;77.50;;;;;;5098321;28;20028;-45
2021/12/24 01:12:06;;;;;;;5.93;2.38;;;11.30;77.80;;;;;;5098506;28;20106;-45
2021/12/24 01:14:32;;;;;;;5.97;2.15;;;11.30;77.30;;;;;;5097519;28;20024;-47
2021/12/24 01:17:11;;;;;;;7.10;2.38;;;11.30;77.60;;;;;;5096052;28;20035;-47
2021/12/24 01:19:38;;;;;;;14.35;2.88;;;11.30;77.30;;;;;;5095613;28;20590;-46
2021/12/24 01:22:45;;;;;;;7.85;2.53;;;11.30;77.30;;;;;;5097255;28;20020;-46
2021/12/24 01:25:19;;;;;;;8.93;2.10;;;11.30;77.20;;;;;;5091697;28;20403;-47
2021/12/24 01:43:28;;;;;;;6.85;1.80;;;11.30;77.80;;;;;;5098201;28;20111;-54
2021/12/24 01:45:57;;;;;;;4.55;1.60;;;11.30;77.50;;;;;;5097406;28;20099;-47
2021/12/24 01:48:23;;;;;;;5.28;1.58;;;11.30;77.10;;;;;;5098091;28;20020;-47
2021/12/24 01:50:51;;;;;;;4.57;1.60;;;11.30;77.40;;;;;;5079414;28;20073;-46
2021/12/24 01:53:22;;;;;;;8.38;2.05;;;11.30;77.20;;;;;;5096447;28;20035;-46
2021/12/24 01:55:52;;;;;;;16.88;2.45;;;11.30;77.50;;;;;;5096297;28;20080;-46
2021/12/24 01:58:24;;;;;;;14.75;2.47;;;11.30;77.10;;;;;;5097198;28;20032;-46
2021/12/24 02:00:58;;;;;;;15.20;2.53;;;11.30;77.60;;;;;;5095194;28;20030;-47
2021/12/24 02:03:24;;;;;;;15.00;2.25;;;11.30;77.70;;;;;;5098198;28;20074;-52
2021/12/24 02:05:51;;;;;;;13.95;2.40;;;11.30;77.60;;;;;;5097906;28;20024;-52
2021/12/24 02:08:17;;;;;;;4.72;2.13;;;11.30;77.50;;;;;;5098255;28;20028;-46
2021/12/24 02:10:49;;;;;;;14.80;3.47;;;11.30;77.60;;;;;;5096624;28;20407;-45
2021/12/24 02:13:15;;;;;;;9.65;2.67;;;11.20;77.60;;;;;;5097191;28;20071;-50
2021/12/24 02:29:22;;;;;;;11.35;2.70;;;11.10;77.40;;;;;;5098149;28;20112;-51
2021/12/24 02:31:48;;;;;;;12.15;2.85;;;11.10;77.50;;;;;;5096160;28;20048;-55
2021/12/24 02:34:14;;;;;;;20.20;3.88;;;11.00;77.50;;;;;;5097070;28;20032;-52
2021/12/24 02:36:39;;;;;;;16.73;3.58;;;11.00;77.70;;;;;;5079432;28;20111;-49
2021/12/24 02:39:06;;;;;;;27.25;4.07;;;11.00;77.60;;;;;;5097495;28;20100;-45
2021/12/24 02:41:32;;;;;;;17.42;2.80;;;11.00;77.50;;;;;;5095821;28;20062;-46
2021/12/24 02:43:58;;;;;;;10.25;2.05;;;11.00;77.60;;;;;;5099470;28;20020;-46
2021/12/24 02:46:35;;;;;;;19.13;2.92;;;10.90;77.40;;;;;;5099623;28;20107;-47
2021/12/24 02:49:18;;;;;;;5.45;1.58;;;10.90;77.70;;;;;;5100220;28;20038;-46
2021/12/24 02:54:28;;;;;;;6.78;2.00;;;10.90;77.50;;;;;;5101227;28;20048;-46
2021/12/24 02:56:59;;;;;;;7.10;1.95;;;10.90;77.30;;;;;;5101638;28;20046;-47
2021/12/24 02:59:26;;;;;;;5.13;2.10;;;10.90;77.30;;;;;;5101444;28;20460;-48
2021/12/24 03:01:54;;;;;;;13.80;2.40;;;10.90;77.80;;;;;;5101461;28;20036;-48
2021/12/24 03:04:20;;;;;;;8.20;2.72;;;10.90;77.50;;;;;;5101497;28;20024;-47
2021/12/24 03:06:49;;;;;;;8.18;2.60;;;10.90;77.40;;;;;;5101580;28;20027;-53
2021/12/24 03:09:18;;;;;;;6.00;1.95;;;10.90;77.30;;;;;;5101288;28;20051;-46
2021/12/24 03:11:46;;;;;;;19.63;3.35;;;10.90;77.60;;;;;;5099716;28;20437;-51
2021/12/24 03:14:15;;;;;;;12.50;2.35;;;10.90;77.80;;;;;;5101280;28;20016;-51
2021/12/24 03:16:43;;;;;;;8.98;2.45;;;10.90;77.80;;;;;;5099770;28;20069;-47
2021/12/24 03:19:11;;;;;;;9.63;2.70;;;10.90;77.80;;;;;;5099578;28;20190;-51
2021/12/24 03:21:54;;;;;;;16.10;3.55;;;10.90;77.40;;;;;;5099213;28;20024;-53
2021/12/24 03:26:47;;;;;;;13.23;3.70;;;10.90;77.50;;;;;;5101051;28;20030;-51
2021/12/24 03:29:15;;;;;;;14.15;4.03;;;10.80;77.40;;;;;;5101319;28;20031;-53
2021/12/24 03:31:41;;;;;;;13.80;4.00;;;10.80;77.50;;;;;;5100722;28;20016;-46
2021/12/24 03:34:10;;;;;;;20.20;5.28;;;10.80;77.10;;;;;;5101212;28;20457;-46
2021/12/24 03:36:36;;;;;;;15.48;4.30;;;10.80;77.30;;;;;;5099405;28;20047;-50
2021/12/24 03:39:04;;;;;;;13.90;3.40;;;10.80;77.50;;;;;;5100601;28;20022;-47
2021/12/24 03:41:30;;;;;;;15.75;4.40;;;10.80;77.30;;;;;;5100648;28;20016;-50
2021/12/24 03:43:56;;;;;;;14.85;3.38;;;10.80;77.50;;;;;;5100773;28;20410;-46
2021/12/24 03:46:32;;;;;;;15.25;4.80;;;10.80;77.70;;;;;;5100503;28;20399;-46
2021/12/24 03:49:03;;;;;;;17.17;3.92;;;10.80;77.80;;;;;;5099220;28;20028;-50
2021/12/24 03:56:41;;;;;;;23.05;4.57;;;10.80;77.30;;;;;;5099916;28;20039;-48
2021/12/24 03:59:07;;;;;;;15.32;4.22;;;10.80;77.80;;;;;;5100510;28;20024;-47
2021/12/24 04:01:34;;;;;;;14.88;3.63;;;10.80;77.70;;;;;;5100261;28;20070;-46
2021/12/24 04:04:00;;;;;;;13.75;3.90;;;10.80;77.50;;;;;;5100610;28;20016;-47
2021/12/24 04:06:26;;;;;;;16.85;3.95;;;10.80;77.80;;;;;;5100153;28;20024;-50
2021/12/24 04:08:52;;;;;;;18.98;4.88;;;10.80;78.00;;;;;;5100276;28;20032;-46
2021/12/24 04:11:18;;;;;;;18.95;4.68;;;10.80;77.70;;;;;;5100095;28;20073;-45
2021/12/24 04:13:44;;;;;;;20.33;4.90;;;10.80;77.50;;;;;;5099408;28;20024;-48
2021/12/24 04:16:11;;;;;;;20.10;5.22;;;10.90;77.90;;;;;;5099898;28;20024;-46
2021/12/24 04:18:47;;;;;;;20.73;5.53;;;10.90;77.90;;;;;;5099916;28;20081;-48
2021/12/24 04:26:42;;;;;;;19.48;5.30;;;10.90;77.90;;;;;;5099770;28;20085;-46
2021/12/24 04:29:08;;;;;;;18.13;5.07;;;10.90;77.80;;;;;;5099728;28;20100;-50
2021/12/24 04:31:44;;;;;;;18.02;4.25;;;10.90;78.10;;;;;;5099673;28;20024;-49
2021/12/24 04:34:12;;;;;;;14.25;4.00;;;10.90;78.10;;;;;;5099618;28;20016;-49
2021/12/24 05:01:32;;;;;;;14.38;3.25;;;11.00;78.10;;;;;;5075252;28;20063;-52
2021/12/24 05:04:04;;;;;;;12.85;2.92;;;10.90;77.90;;;;;;5096896;28;20085;-52
2021/12/24 05:06:36;;;;;;;18.80;3.30;;;10.90;77.60;;;;;;5097395;28;20066;-51
2021/12/24 05:09:12;;;;;;;19.92;3.30;;;10.90;78.00;;;;;;5097491;28;20043;-54
2021/12/24 05:11:38;;;;;;;16.48;3.00;;;10.90;77.60;;;;;;5097350;28;20437;-50
2021/12/24 05:14:05;;;;;;;21.10;4.07;;;10.90;77.80;;;;;;5098739;28;20450;-53
2021/12/24 05:17:21;;;;;;;16.48;3.60;;;10.90;77.90;;;;;;5097424;28;20031;-50
2021/12/24 05:22:08;;;;;;;;;;;11.00;78.50;;;;;;5098835;28;20103;-48
2021/12/24 05:24:34;;;;;;;16.00;4.32;;;11.00;78.60;;;;;;5097942;28;20375;-48
2021/12/24 05:27:02;;;;;;;21.08;3.80;;;11.00;79.10;;;;;;5096905;28;20030;-48
2021/12/24 05:29:28;;;;;;;16.80;3.35;;;11.10;78.70;;;;;;5098927;28;20020;-45
2021/12/24 05:31:55;;;;;;;17.42;3.95;;;11.10;78.30;;;;;;5097231;28;20407;-46
2021/12/24 05:34:24;;;;;;;16.30;4.10;;;11.10;78.60;;;;;;5098688;28;20032;-45
2021/12/24 05:36:54;;;;;;;20.45;5.05;;;11.00;78.00;;;;;;5098634;28;20024;-47
2021/12/24 05:39:22;;;;;;;16.80;3.97;;;11.00;78.10;;;;;;5096944;28;20025;-45
2021/12/24 05:41:48;;;;;;;22.42;5.13;;;11.00;78.10;;;;;;5097207;28;20464;-50
2021/12/24 05:44:16;;;;;;;19.58;3.88;;;11.00;78.50;;;;;;5098704;28;20028;-45
2021/12/24 05:46:45;;;;;;;17.20;3.10;;;10.90;79.00;;;;;;5080261;28;20020;-51
2021/12/24 05:49:11;;;;;;;18.98;3.90;;;11.00;78.90;;;;;;5063869;28;20067;-47
2021/12/24 05:51:37;;;;;;;19.60;3.58;;;11.00;79.20;;;;;;5096880;28;20472;-46
2021/12/24 05:54:03;;;;;;;17.30;3.78;;;11.00;78.80;;;;;;5096194;28;20522;-51
2021/12/24 05:56:30;;;;;;;15.93;3.67;;;11.10;78.80;;;;;;5096598;28;20024;-52
2021/12/24 05:58:55;;;;;;;13.60;2.90;;;11.00;78.70;;;;;;5098276;28;20039;-50
2021/12/24 06:01:23;;;;;;;17.10;2.95;;;11.00;78.90;;;;;;5096195;28;20020;-50
2021/12/24 06:03:50;;;;;;;17.75;4.13;;;11.00;78.50;;;;;;5096595;28;20024;-50
2021/12/24 06:06:16;;;;;;;18.85;3.88;;;11.00;78.70;;;;;;5098175;28;20080;-46
2021/12/24 06:08:42;;;;;;;15.88;3.30;;;11.00;78.10;;;;;;5098066;28;20024;-47
2021/12/24 06:11:08;;;;;;;19.85;4.20;;;11.00;78.10;;;;;;5096625;28;20020;-50
2021/12/24 06:13:36;;;;;;;21.63;5.22;;;11.00;77.80;;;;;;5097075;28;20027;-51
2021/12/24 06:16:05;;;;;;;26.90;5.68;;;10.90;77.70;;;;;;5096989;28;20016;-50
2021/12/24 06:18:31;;;;;;;23.35;5.60;;;10.90;77.80;;;;;;5078853;28;20436;-51
2021/12/24 06:21:03;;;;;;;22.92;5.18;;;10.80;77.80;;;;;;5098374;28;20031;-45
2021/12/24 06:23:31;;;;;;;22.17;5.20;;;10.80;77.70;;;;;;5096346;28;20038;-50
2021/12/24 06:26:05;;;;;;;20.42;6.10;;;10.70;78.00;;;;;;5096545;28;20024;-46
2021/12/24 06:28:36;;;;;;;21.60;5.72;;;10.60;77.90;;;;;;5096387;28;20044;-47
2021/12/24 06:31:03;;;;;;;21.08;5.57;;;10.60;78.00;;;;;;5096477;28;20067;-47
2021/12/24 06:33:29;;;;;;;27.45;6.15;;;10.50;77.90;;;;;;5097597;28;20028;-51
2021/12/24 06:35:59;;;;;;;23.70;5.50;;;10.50;77.90;;;;;;5097568;28;20020;-50
2021/12/24 06:38:25;;;;;;;31.05;7.03;;;10.50;78.10;;;;;;5097598;28;20038;-50
2021/12/24 06:40:55;;;;;;;22.33;5.10;;;10.50;78.10;;;;;;5097736;28;20020;-50
2021/12/24 06:43:22;;;;;;;21.67;5.45;;;10.50;78.00;;;;;;5096335;28;20028;-51
2021/12/24 06:45:49;;;;;;;23.08;5.28;;;10.50;78.10;;;;;;5096221;28;20428;-51
2021/12/24 06:48:17;;;;;;;20.98;5.18;;;10.60;78.20;;;;;;5097886;28;20111;-45
2021/12/24 06:50:53;;;;;;;21.20;5.35;;;10.60;78.30;;;;;;5096348;28;20020;-46
2021/12/24 06:53:22;;;;;;;27.38;5.97;;;10.60;78.40;;;;;;5097591;28;20506;-46
2021/12/24 06:55:48;;;;;;;24.95;5.22;;;10.60;78.50;;;;;;5079606;28;20535;-46
2021/12/24 06:58:14;;;;;;;25.42;4.55;;;10.60;78.40;;;;;;5097273;28;20109;-47
2021/12/24 07:00:40;;;;;;;22.08;4.82;;;10.60;78.50;;;;;;5079334;28;20028;-46
2021/12/24 07:03:12;;;;;;;17.48;4.60;;;10.60;78.20;;;;;;5097639;28;20031;-46
2021/12/24 07:05:39;;;;;;;18.02;3.60;;;10.60;78.00;;;;;;5097819;28;20058;-51
2021/12/24 07:08:05;;;;;;;23.10;4.13;;;10.60;78.40;;;;;;5079145;28;20028;-51
2021/12/24 07:10:31;;;;;;;17.77;5.13;;;10.70;78.60;;;;;;5096032;28;20028;-52
2021/12/24 07:12:57;;;;;;;15.48;3.95;;;10.60;78.10;;;;;;5095972;28;20476;-51
2021/12/24 07:15:26;;;;;;;20.05;4.03;;;10.70;77.90;;;;;;5096010;28;20016;-52
2021/12/24 07:17:55;;;;;;;17.17;3.72;;;10.70;78.10;;;;;;5079667;28;20084;-46
2021/12/24 07:20:21;;;;;;;13.93;3.00;;;10.70;78.10;;;;;;5096985;28;20059;-47
2021/12/24 07:22:47;;;;;;;19.73;3.85;;;10.70;78.00;;;;;;5097168;28;20027;-51
2021/12/24 07:25:14;;;;;;;18.73;3.10;;;10.80;78.10;;;;;;5096429;28;20365;-53
2021/12/24 07:27:39;;;;;;;15.07;2.95;;;10.80;77.90;;;;;;5096995;28;20035;-51
2021/12/24 07:30:12;;;;;;;15.57;3.95;;;10.70;77.90;;;;;;5100863;28;20021;-51
2021/12/24 07:32:50;;;;;;;18.02;3.20;;;10.70;78.00;;;;;;5096571;28;20050;-53
2021/12/24 07:35:22;;;;;;;16.17;3.30;;;10.70;78.20;;;;;;5078746;28;20037;-48
2021/12/24 07:37:51;;;;;;;17.00;3.55;;;10.70;78.40;;;;;;5061796;28;20103;-45
2021/12/24 07:40:19;;;;;;;14.98;2.83;;;10.80;78.50;;;;;;5079360;28;20468;-50
2021/12/24 07:42:46;;;;;;;11.80;3.33;;;10.80;78.30;;;;;;5084684;28;20108;-53
2021/12/24 07:45:14;;;;;;;14.27;3.72;;;10.80;78.50;;;;;;5099800;28;20027;-52
2021/12/24 07:47:43;;;;;;;19.95;3.85;;;10.80;78.40;;;;;;5099544;28;20072;-44
2021/12/24 07:52:57;;;;;;;33.97;5.72;;;10.80;78.30;;;;;;5100210;28;20027;-47
2021/12/24 07:55:25;;;;;;;20.63;4.35;;;10.80;78.40;;;;;;5100214;28;20024;-50
2021/12/24 07:57:54;;;;;;;26.02;5.45;;;10.80;78.30;;;;;;5099247;28;20036;-51
2021/12/24 08:00:23;;;;;;;21.15;4.50;;;10.80;78.30;;;;;;5097362;28;20066;-51
2021/12/24 08:02:50;;;;;;;21.40;4.40;;;10.80;78.30;;;;;;5098420;28;20024;-49
2021/12/24 08:05:19;;;;;;;22.17;4.82;;;10.80;78.30;;;;;;5098270;28;20028;-49
2021/12/24 08:07:45;;;;;;;20.65;3.92;;;10.80;78.40;;;;;;5098268;28;20024;-54
2021/12/24 08:10:14;;;;;;;26.02;5.32;;;10.70;78.10;;;;;;5098608;28;20054;-50
2021/12/24 08:12:40;;;;;;;17.13;4.88;;;10.70;78.30;;;;;;5097584;28;20023;-51
2021/12/24 08:15:07;;;;;;;21.98;4.53;;;10.70;78.20;;;;;;5097759;28;20043;-51
2021/12/24 08:17:33;;;;;;;19.65;4.90;;;10.70;78.50;;;;;;5085295;28;20054;-49
2021/12/24 08:19:59;;;;;;;17.65;4.15;;;10.70;78.50;;;;;;5079230;28;20135;-51
2021/12/24 08:22:27;;;;;;;17.77;3.85;;;10.70;78.60;;;;;;5079402;28;20056;-51
2021/12/24 08:24:53;;;;;;;17.65;3.17;;;10.70;78.80;;;;;;5079824;28;20021;-54
2021/12/24 08:27:19;;;;;;;16.20;3.80;;;10.80;78.90;;;;;;5077857;28;20103;-52
2021/12/24 08:29:45;;;;;;;14.73;3.50;;;10.80;79.00;;;;;;5078736;28;20021;-51
2021/12/24 08:32:11;;;;;;;20.92;3.40;;;10.90;79.30;;;;;;5078041;28;20032;-53
2021/12/24 08:34:38;;;;;;;23.75;4.00;;;10.90;79.00;;;;;;5079474;28;20024;-55
2021/12/24 08:37:05;;;;;;;16.92;3.38;;;11.00;79.10;;;;;;5078705;28;20399;-51
2021/12/24 08:39:31;;;;;;;22.15;3.50;;;11.00;78.90;;;;;;5079404;28;20028;-52
2021/12/24 08:41:57;;;;;;;23.27;3.70;;;11.10;79.00;;;;;;5079498;28;20058;-54
2021/12/24 08:44:26;;;;;;;15.30;3.85;;;11.10;78.90;;;;;;5079187;28;20021;-55
2021/12/24 08:46:52;;;;;;;19.00;3.70;;;11.20;78.80;;;;;;5079668;28;20032;-56
2021/12/24 08:49:20;;;;;;;16.60;3.95;;;11.20;78.80;;;;;;5079238;28;20105;-56
2021/12/24 08:51:47;;;;;;;18.63;3.55;;;11.20;79.00;;;;;;5078971;28;20028;-56
2021/12/24 08:54:13;;;;;;;18.10;3.95;;;11.20;78.70;;;;;;5079065;28;20029;-55
2021/12/24 08:56:39;;;;;;;20.30;3.78;;;11.30;78.90;;;;;;5079195;28;20079;-54
2021/12/24 08:59:05;;;;;;;20.10;4.00;;;11.30;79.00;;;;;;5078929;28;20430;-54
2021/12/24 09:01:31;;;;;;;21.45;4.25;;;11.40;79.10;;;;;;5079039;28;20032;-55
2021/12/24 09:03:57;;;;;;;19.17;3.78;;;11.60;78.80;;;;;;5077456;28;20040;-55
2021/12/24 09:06:26;;;;;;;19.92;4.00;;;11.60;78.70;;;;;;5078058;28;20491;-52
2021/12/24 09:08:52;;;;;;;26.65;4.75;;;11.70;78.70;;;;;;5078227;28;20052;-57
2021/12/24 09:11:18;;;;;;;18.20;4.18;;;11.80;78.40;;;;;;5078009;28;20024;-53
2021/12/24 09:13:45;;;;;;;24.33;4.82;;;11.80;78.10;;;;;;5078455;28;20025;-52
2021/12/24 09:16:11;;;;;;;23.25;4.00;;;11.80;78.10;;;;;;5078195;28;20479;-56
2021/12/24 09:18:40;;;;;;;23.50;3.72;;;11.70;78.10;;;;;;5077931;28;20154;-56
2021/12/24 09:21:14;;;;;;;17.27;3.10;;;11.70;78.00;;;;;;5078143;28;20040;-56
2021/12/24 09:23:40;;;;;;;22.07;3.80;;;11.60;78.10;;;;;;5078122;28;20060;-56
2021/12/24 09:26:06;;;;;;;17.58;3.83;;;11.60;78.30;;;;;;5077905;28;20035;-56
2021/12/24 09:28:31;;;;;;;18.50;3.88;;;11.60;78.40;;;;;;5077548;28;20104;-56
2021/12/24 09:30:57;;;;;;;15.95;3.30;;;11.60;78.30;;;;;;5077960;28;20029;-55
2021/12/24 09:33:23;;;;;;;21.42;3.63;;;11.50;78.50;;;;;;5077815;28;20097;-54
2021/12/24 09:35:49;;;;;;;18.95;3.92;;;11.50;78.70;;;;;;5077880;28;20031;-55
2021/12/24 09:38:15;;;;;;;25.98;4.20;;;11.50;78.80;;;;;;5081753;28;20079;-55
2021/12/24 09:40:41;;;;;;;19.58;3.75;;;11.60;78.80;;;;;;5093951;28;20074;-56
2021/12/24 09:43:15;;;;;;;21.90;4.63;;;11.50;78.70;;;;;;5087085;28;20093;-53
2021/12/24 09:45:47;;;;;;;26.70;3.95;;;11.50;78.50;;;;;;5091865;28;20035;-54
2021/12/24 09:48:17;;;;;;;26.35;4.57;;;11.50;78.60;;;;;;5078980;28;20044;-53
2021/12/24 09:50:46;;;;;;;20.00;4.95;;;11.50;78.60;;;;;;5096887;28;20057;-56
2021/12/24 09:53:13;;;;;;;17.73;4.03;;;11.50;78.50;;;;;;5097525;28;20021;-52
2021/12/24 09:55:39;;;;;;;21.58;3.78;;;11.50;78.70;;;;;;5096199;28;20050;-56
2021/12/24 09:58:05;;;;;;;18.92;4.57;;;11.50;78.60;;;;;;5094629;28;20024;-56
2021/12/24 10:00:32;;;;;;;23.13;4.45;;;11.50;79.20;;;;;;5095928;28;20051;-52
2021/12/24 10:02:59;;;;;;;22.58;6.10;;;11.50;78.80;;;;;;5093887;28;20036;-53
2021/12/24 10:05:36;;;;;;;17.63;3.85;;;11.50;78.80;;;;;;5076910;28;20032;-55
2021/12/24 10:08:20;;;;;;;23.17;4.38;;;11.50;78.70;;;;;;5096298;28;20057;-54
2021/12/24 10:10:51;;;;;;;19.02;4.07;;;11.50;78.90;;;;;;5095219;28;20478;-56
2021/12/24 10:13:42;;;;;;;15.43;3.33;;;11.50;78.80;;;;;;5096205;28;20048;-55
2021/12/24 10:16:20;;;;;;;18.25;3.65;;;11.50;78.80;;;;;;5096249;28;20024;-56
2021/12/24 10:18:53;;;;;;;21.70;3.80;;;11.50;78.90;;;;;;5097884;28;20056;-55
2021/12/24 10:21:24;;;;;;;21.80;3.93;;;11.50;78.80;;;;;;5097961;28;20425;-50
2021/12/24 10:24:01;;;;;;;15.65;3.53;;;11.50;79.00;;;;;;5097325;28;20102;-56
2021/12/24 10:26:33;;;;;;;19.42;4.57;;;11.60;79.00;;;;;;5094461;28;20043;-56
2021/12/24 10:29:10;;;;;;;18.60;3.60;;;11.60;78.90;;;;;;5096838;28;20020;-56
2021/12/24 10:31:38;;;;;;;17.30;3.90;;;11.60;79.40;;;;;;5097431;28;20020;-48
2021/12/24 10:34:13;;;;;;;18.63;4.50;;;11.60;78.80;;;;;;5097772;28;20021;-52
2021/12/24 10:36:59;;;;;;;19.98;4.93;;;11.60;78.90;;;;;;5097179;28;20476;-49
2021/12/24 10:39:31;;;;;;;20.50;4.68;;;11.60;78.80;;;;;;5097432;28;20024;-51
2021/12/24 10:41:59;;;;;;;15.15;3.70;;;11.60;78.60;;;;;;5096825;28;20024;-46
2021/12/24 10:44:28;;;;;;;21.08;3.15;;;11.60;78.70;;;;;;5096638;28;20043;-47
2021/12/24 10:47:01;;;;;;;21.85;3.75;;;11.60;78.50;;;;;;5097597;28;20029;-50
2021/12/24 10:54:53;;;;;;;17.58;4.03;;;11.70;78.20;;;;;;5094868;28;20044;-50
2021/12/24 10:57:23;;;;;;;17.77;3.80;;;11.70;77.90;;;;;;5093957;28;20024;-52
2021/12/24 10:59:53;;;;;;;15.70;3.92;;;11.70;77.90;;;;;;5096576;28;20028;-50
2021/12/24 11:02:20;;;;;;;18.42;4.00;;;11.80;77.90;;;;;;5095755;28;20471;-48
2021/12/24 11:04:53;;;;;;;17.42;4.18;;;11.80;77.90;;;;;;5099641;28;20038;-45
2021/12/24 11:07:40;;;;;;;13.73;3.43;;;11.80;78.00;;;;;;5096263;28;20031;-47
2021/12/24 11:10:19;;;;;;;13.25;3.55;;;11.80;77.90;;;;;;5099208;28;20031;-51
2021/12/24 11:12:57;;;;;;;16.80;3.17;;;11.80;77.80;;;;;;5096705;28;20068;-45
2021/12/24 11:15:28;;;;;;;19.65;4.47;;;11.80;78.00;;;;;;5089236;28;20372;-49
2021/12/24 11:18:00;;;;;;;20.83;3.70;;;11.80;77.80;;;;;;5096572;28;20032;-50
2021/12/24 11:20:28;;;;;;;17.83;3.13;;;11.80;78.00;;;;;;5097107;28;20071;-48
2021/12/24 11:23:06;;;;;;;20.05;3.95;;;11.70;78.00;;;;;;5095229;28;20039;-48
2021/12/24 11:25:54;;;;;;;16.95;4.10;;;11.70;77.90;;;;;;5099063;28;20070;-50
2021/12/24 11:28:23;;;;;;;15.05;3.60;;;11.70;77.80;;;;;;5098766;28;20231;-51
2021/12/24 11:30:52;;;;;;;15.27;4.05;;;11.70;77.80;;;;;;5097725;28;20024;-50
2021/12/24 11:33:21;;;;;;;17.30;3.40;;;11.70;77.80;;;;;;5098018;28;20024;-52
2021/12/24 11:35:48;;;;;;;18.52;4.22;;;11.80;77.80;;;;;;5098416;28;20024;-48
2021/12/24 11:38:17;;;;;;;15.20;3.72;;;11.80;77.70;;;;;;5098097;28;20114;-48
2021/12/24 11:40:45;;;;;;;14.40;4.07;;;11.80;77.60;;;;;;5097680;28;20261;-50
2021/12/24 11:43:12;;;;;;;22.45;4.25;;;11.80;77.50;;;;;;5097574;28;20028;-50
2021/12/24 11:45:38;;;;;;;13.63;3.60;;;11.80;77.50;;;;;;5097045;28;20027;-47
2021/12/24 11:48:06;;;;;;;18.67;3.50;;;11.90;77.50;;;;;;5097675;28;20036;-50
2021/12/24 11:50:33;;;;;;;15.50;3.35;;;11.80;77.60;;;;;;5097625;28;20077;-52
2021/12/24 11:53:08;;;;;;;14.75;3.40;;;11.80;77.40;;;;;;5099043;28;20024;-52
2021/12/24 11:55:41;;;;;;;15.73;3.45;;;11.80;77.30;;;;;;5098936;28;20030;-48
2021/12/24 11:58:15;;;;;;;18.85;4.75;;;11.80;77.20;;;;;;5099463;28;20020;-49
2021/12/24 12:00:43;;;;;;;14.90;3.20;;;11.80;77.20;;;;;;5099861;28;20043;-47
2021/12/24 12:03:10;;;;;;;20.55;3.58;;;11.90;77.80;;;;;;5099659;28;20410;-49
2021/12/24 12:05:41;;;;;;;16.60;3.17;;;11.90;77.40;;;;;;5099393;28;20528;-49
2021/12/24 12:08:25;;;;;;;19.05;3.38;;;11.90;77.50;;;;;;5099551;28;20028;-49
2021/12/24 12:11:04;;;;;;;18.70;3.77;;;11.90;77.50;;;;;;5099683;28;20031;-50
2021/12/24 12:13:46;;;;;;;15.48;3.50;;;11.90;77.50;;;;;;5099117;28;20024;-51
2021/12/24 12:16:18;;;;;;;14.68;3.03;;;11.90;77.50;;;;;;5098980;28;20016;-48
2021/12/24 12:19:01;;;;;;;17.23;5.15;;;11.90;77.70;;;;;;5098878;28;20032;-49
2021/12/24 12:22:10;;;;;;;20.58;4.32;;;11.80;77.80;;;;;;5099095;28;20453;-48
2021/12/24 12:26:52;;;;;;;20.77;4.75;;;11.80;77.80;;;;;;5099775;28;20070;-52
2021/12/24 12:29:44;;;;;;;16.70;4.00;;;11.80;77.70;;;;;;5099265;28;20056;-51
2021/12/24 12:32:13;;;;;;;19.25;4.35;;;11.80;77.70;;;;;;5099397;28;20102;-52
2021/12/24 12:34:38;;;;;;;23.25;4.68;;;11.90;77.80;;;;;;5099354;28;20024;-54
2021/12/24 12:37:21;;;;;;;21.92;3.60;;;11.90;77.70;;;;;;5099002;28;20035;-50
2021/12/24 12:39:57;;;;;;;17.60;3.25;;;11.90;77.80;;;;;;5099141;28;20027;-54
2021/12/24 12:42:43;;;;;;;16.80;3.40;;;11.90;77.80;;;;;;5098687;28;20433;-50
2021/12/24 12:45:09;;;;;;;21.65;4.85;;;11.90;77.70;;;;;;5099076;28;20476;-53
2021/12/24 12:47:54;;;;;;;15.57;5.70;;;12.00;77.70;;;;;;5098651;28;20109;-47
2021/12/24 12:50:21;;;;;;;15.45;3.78;;;12.00;77.60;;;;;;5098956;28;20096;-52
2021/12/24 12:52:47;;;;;;;17.00;3.17;;;12.10;77.50;;;;;;5098713;28;20020;-49
2021/12/24 12:55:34;;;;;;;13.27;3.83;;;12.10;77.50;;;;;;5098656;28;20016;-48
2021/12/24 12:58:21;;;;;;;14.70;3.58;;;12.20;77.40;;;;;;5098641;28;20107;-52
2021/12/24 13:01:18;;;;;;;19.83;4.00;;;12.20;77.40;;;;;;5098417;28;20122;-51
2021/12/24 13:03:56;;;;;;;20.10;3.92;;;12.30;77.30;;;;;;5085177;28;20071;-48
2021/12/24 13:06:43;;;;;;;21.88;4.63;;;12.30;77.30;;;;;;5098305;28;20513;-50
2021/12/24 13:09:11;;;;;;;18.27;4.22;;;12.30;77.10;;;;;;5098383;28;20051;-52
2021/12/24 13:11:46;;;;;;;26.48;4.80;;;12.30;77.10;;;;;;5098379;28;20498;-51
2021/12/24 13:14:12;;;;;;;;;;;12.30;77.00;;;;;;5098699;28;20020;-52
2021/12/24 13:16:50;;;;;;;21.58;6.38;;;12.20;77.10;;;;;;5098333;28;19939;-48
2021/12/24 13:19:44;;;;;;;26.88;4.90;;;12.20;77.30;;;;;;5096549;28;20119;-52
2021/12/24 13:24:56;;;;;;;;;;;12.20;77.50;;;;;;5098136;28;20023;-51
2021/12/24 13:27:27;;;;;;;20.92;5.03;;;12.40;77.70;;;;;;5096557;28;19919;-52
2021/12/24 13:30:17;;;;;;;20.25;5.53;;;12.70;77.30;;;;;;5097812;28;20012;-50
2021/12/24 13:32:46;;;;;;;24.95;5.57;;;12.90;76.70;;;;;;5097425;28;20061;-49
2021/12/24 13:35:13;;;;;;;26.90;5.65;;;13.00;76.20;;;;;;5097870;28;20103;-52
2021/12/24 13:37:45;;;;;;;29.40;5.75;;;12.90;75.80;;;;;;5098237;28;20055;-53
2021/12/24 13:40:13;;;;;;;21.63;5.15;;;12.90;76.10;;;;;;5098045;28;20111;-50
2021/12/24 13:42:46;;;;;;;23.35;4.95;;;12.90;76.10;;;;;;5096845;28;20040;-52
2021/12/24 13:45:13;;;;;;;21.37;4.43;;;12.90;75.60;;;;;;5097985;28;20076;-48
2021/12/24 13:55:39;;;;;;;31.10;6.47;;;12.70;76.40;;;;;;5097935;28;20082;-47
2021/12/24 13:58:10;;;;;;;36.55;5.78;;;12.80;76.40;;;;;;5097868;28;20028;-51
2021/12/24 14:00:45;;;;;;;31.52;5.80;;;13.00;76.30;;;;;;5097727;28;20023;-48
2021/12/24 14:03:11;;;;;;;;;;;13.30;76.10;;;;;;5098566;28;20016;-48
2021/12/24 14:05:48;;;;;;;27.55;6.68;;;13.40;75.40;;;;;;5097416;28;20424;-51
2021/12/24 14:08:18;;;;;;;28.02;5.82;;;13.40;75.30;;;;;;5097489;28;20024;-53
2021/12/24 14:10:45;;;;;;;23.95;5.22;;;13.50;74.90;;;;;;5097452;28;20013;-53
2021/12/24 14:13:27;;;;;;;25.95;5.82;;;13.80;75.40;;;;;;5097264;28;20511;-51
2021/12/24 14:16:06;;;;;;;39.10;8.13;;;14.20;74.10;;;;;;5097244;28;20024;-50
2021/12/24 14:24:21;;;;;;;30.20;6.53;;;13.80;73.40;;;;;;5097803;28;20489;-49
2021/12/24 14:26:55;;;;;;;33.60;7.22;;;13.60;73.80;;;;;;5097480;28;20505;-47
2021/12/24 14:29:30;;;;;;;29.67;6.90;;;13.40;74.10;;;;;;5097574;28;20028;-53
2021/12/24 14:32:08;;;;;;;32.05;7.28;;;13.40;74.10;;;;;;5097308;28;20040;-49
2021/12/24 14:34:42;;;;;;;32.97;7.75;;;13.30;74.60;;;;;;5096884;28;20016;-53
2021/12/24 14:37:27;;;;;;;;;;;13.30;74.50;;;;;;5099856;28;20059;-52
2021/12/24 14:40:08;;;;;;;32.70;6.40;;;13.30;74.80;;;;;;5101368;28;19911;-54
2021/12/24 14:42:43;;;;;;;26.30;5.65;;;13.30;74.50;;;;;;5101617;28;20463;-53
2021/12/24 14:45:39;;;;;;;27.95;5.55;;;13.30;74.80;;;;;;5101619;28;20116;-52
2021/12/24 14:48:10;;;;;;;35.92;6.88;;;13.20;74.50;;;;;;5101188;28;20031;-49
2021/12/24 14:50:52;;;;;;;30.73;4.93;;;13.10;74.70;;;;;;5101346;28;20024;-52
2021/12/24 14:53:22;;;;;;;27.92;6.32;;;13.10;74.90;;;;;;5101483;28;20016;-52
2021/12/24 14:56:04;;;;;;;28.95;5.82;;;13.00;74.80;;;;;;5101151;28;20024;-47
2021/12/24 14:58:32;;;;;;;29.42;5.72;;;12.80;74.70;;;;;;5100816;28;20024;-48